Time;durP1;ratioP1;P1;durP2;ratioP2;P2;SDS_P1;SDS_P2;PMS_P1;PMS_P2;Temp;Humidity;BMP_temperature;BMP_pressure;BME280_temperature;BME280_humidity;BME280_pressure;Samples;Min_cycle;Max_cycle;Signal;HPM_P1;HPM_P2
2022/03/29 00:01:55;;;;;;;41.70;17.10;;;;;;;6.03;67.07;101234.81;5104369;28;20123;-83
2022/03/29 00:04:22;;;;;;;;;;;;;;;6.12;67.14;101231.44;5095249;28;20043;-81
2022/03/29 00:06:49;;;;;;;31.90;15.65;;;;;;;5.85;67.35;101204.16;5109135;28;19912;-84
2022/03/29 00:09:16;;;;;;;44.25;16.50;;;;;;;5.83;67.75;101225.66;5111585;28;20028;-83
2022/03/29 00:11:42;;;;;;;41.60;14.88;;;;;;;6.03;67.45;101223.28;5094450;28;20048;-82
2022/03/29 00:14:09;;;;;;;38.65;14.88;;;;;;;5.85;67.78;101206.84;5107551;28;20126;-84
2022/03/29 00:16:35;;;;;;;34.67;14.38;;;;;;;5.96;67.48;101201.56;5112500;28;20050;-83
2022/03/29 00:19:00;;;;;;;38.33;14.60;;;;;;;5.88;67.71;101177.25;5109304;28;20119;-83
2022/03/29 00:21:26;;;;;;;41.13;15.20;;;;;;;6.09;67.37;101188.97;5085527;28;20119;-82
2022/03/29 00:23:52;;;;;;;38.10;15.60;;;;;;;6.08;67.85;101179.25;5083727;28;20039;-83
2022/03/29 00:26:19;;;;;;;36.53;16.02;;;;;;;5.94;68.40;101182.13;5101576;28;20046;-83
2022/03/29 00:28:48;;;;;;;31.98;14.90;;;;;;;5.88;68.06;101172.78;5101731;28;20035;-83
2022/03/29 00:31:13;;;;;;;40.45;15.45;;;;;;;5.89;68.17;101168.28;5093805;28;20039;-83
2022/03/29 00:33:39;;;;;;;29.23;14.48;;;;;;;5.85;68.30;101172.13;5106683;28;20059;-82
2022/03/29 00:36:06;;;;;;;31.33;14.15;;;;;;;5.76;68.32;101147.03;5073531;28;20055;-83
2022/03/29 00:38:32;;;;;;;41.55;14.90;;;;;;;5.61;68.80;101154.38;5075137;28;20047;-82
2022/03/29 00:40:59;;;;;;;35.33;14.68;;;;;;;5.81;68.38;101168.03;5093298;28;20051;-81
2022/03/29 00:43:25;;;;;;;38.83;15.95;;;;;;;5.89;68.11;101153.09;5062377;28;20067;-82
2022/03/29 00:45:51;;;;;;;;;;;;;;;6.02;67.84;101157.56;5074240;28;20062;-82
2022/03/29 00:48:17;;;;;;;;;;;;;;;6.06;67.36;101148.31;5091422;28;19936;-82
2022/03/29 00:50:45;;;;;;;37.70;14.32;;;;;;;5.82;68.40;101156.38;5088408;28;19916;-82
2022/03/29 00:53:10;;;;;;;33.38;14.00;;;;;;;5.73;68.74;101157.91;5068048;28;20044;-82
2022/03/29 00:55:38;;;;;;;30.77;13.13;;;;;;;5.89;67.94;101145.09;5069048;28;20040;-82
2022/03/29 00:58:08;;;;;;;39.83;13.88;;;;;;;5.80;68.29;101139.63;5070913;28;20443;-84
2022/03/29 01:00:34;;;;;;;35.13;14.10;;;;;;;5.77;68.25;101139.88;5072683;28;20035;-82
2022/03/29 01:03:03;;;;;;;34.85;13.48;;;;;;;5.68;68.51;101120.91;5074725;28;20114;-82
2022/03/29 01:05:31;;;;;;;31.35;13.80;;;;;;;5.75;68.41;101117.78;5075200;28;20221;-82
2022/03/29 01:08:00;;;;;;;28.75;14.20;;;;;;;5.89;67.90;101118.41;5052368;28;20032;-83
2022/03/29 01:10:25;;;;;;;32.70;14.23;;;;;;;5.87;67.58;101122.16;5091074;28;20086;-83
2022/03/29 01:12:54;;;;;;;36.33;14.32;;;;;;;5.85;67.73;101122.31;5050890;28;20036;-84
2022/03/29 01:15:22;;;;;;;34.47;14.63;;;;;;;5.93;67.43;101113.69;5072891;28;20055;-82
2022/03/29 01:17:50;;;;;;;38.00;14.68;;;;;;;6.02;67.03;101115.69;5092543;28;20036;-83
2022/03/29 01:20:20;;;;;;;41.20;14.63;;;;;;;5.95;67.24;101117.13;5056182;28;20066;-83
2022/03/29 01:22:49;;;;;;;39.97;15.25;;;;;;;5.91;67.15;101107.63;5082684;28;20019;-82
2022/03/29 01:25:24;;;;;;;34.35;14.32;;;;;;;6.19;66.12;101101.00;5086845;28;20036;-83
2022/03/29 01:27:51;;;;;;;38.15;14.82;;;;;;;6.16;66.29;101095.03;5045921;28;20033;-83
2022/03/29 01:30:17;;;;;;;40.88;14.70;;;;;;;6.24;66.01;101084.63;5051764;28;20087;-83
2022/03/29 01:32:48;;;;;;;34.33;13.95;;;;;;;6.23;66.47;101080.25;5055137;28;20038;-84
2022/03/29 01:35:15;;;;;;;37.15;14.73;;;;;;;6.21;66.34;101074.19;5066694;28;20039;-83
2022/03/29 01:37:40;;;;;;;35.78;14.35;;;;;;;6.23;66.29;101074.91;5057790;28;20378;-83
2022/03/29 01:40:15;;;;;;;36.30;15.32;;;;;;;6.26;66.31;101072.84;5085462;28;20504;-84
2022/03/29 01:42:42;;;;;;;43.42;15.85;;;;;;;6.11;66.63;101053.56;5084070;28;20035;-84
2022/03/29 01:45:09;;;;;;;31.05;15.18;;;;;;;6.11;67.09;101066.91;5073184;28;20047;-83
2022/03/29 01:47:36;;;;;;;39.47;14.95;;;;;;;6.17;66.65;101067.38;5088850;28;20384;-83
2022/03/29 01:50:02;;;;;;;39.35;14.90;;;;;;;6.18;66.38;101061.94;5106905;28;20043;-82
2022/03/29 01:52:27;;;;;;;35.30;15.63;;;;;;;6.12;66.30;101039.22;5110409;28;20464;-83
2022/03/29 01:54:53;;;;;;;40.10;16.08;;;;;;;6.25;66.11;101060.47;5074522;28;20495;-84
2022/03/29 01:57:27;;;;;;;30.90;14.95;;;;;;;6.21;66.45;101055.50;5090447;28;20043;-82
2022/03/29 02:02:37;;;;;;;38.47;15.30;;;;;;;6.36;65.89;101048.06;5085809;28;20072;-83
2022/03/29 02:05:04;;;;;;;36.88;16.65;;;;;;;6.21;66.42;101052.81;5110216;28;20040;-82
2022/03/29 02:07:36;;;;;;;33.28;15.15;;;;;;;6.29;66.01;101027.19;5110453;28;20032;-84
2022/03/29 02:10:10;;;;;;;31.42;15.15;;;;;;;6.42;65.84;101036.88;5106403;28;20040;-84
2022/03/29 02:12:39;;;;;;;41.58;15.85;;;;;;;6.32;65.99;101010.06;5105646;28;20032;-83
2022/03/29 02:15:05;;;;;;;41.58;18.08;;;;;;;6.30;66.85;101023.56;5074865;28;20422;-84
2022/03/29 02:17:30;;;;;;;41.60;19.17;;;;;;;6.20;67.71;101037.75;5091323;28;20488;-83
2022/03/29 02:20:01;;;;;;;38.60;20.50;;;;;;;6.13;68.42;101032.94;5109468;28;20036;-84
2022/03/29 02:22:26;;;;;;;40.65;21.92;;;;;;;6.18;68.56;101013.88;5110000;28;20035;-84
2022/03/29 02:24:52;;;;;;;53.17;29.63;;;;;;;6.11;69.19;101010.84;5074372;28;20039;-83
2022/03/29 02:27:18;;;;;;;51.08;32.45;;;;;;;6.29;69.18;101007.66;5073283;28;20039;-83
2022/03/29 02:29:43;;;;;;;53.10;32.72;;;;;;;6.18;69.74;100996.97;5088195;28;20487;-82
2022/03/29 02:32:10;;;;;;;46.47;28.08;;;;;;;6.31;69.45;101003.88;5073534;28;20145;-82
2022/03/29 02:34:35;;;;;;;48.58;24.73;;;;;;;6.40;68.97;101015.63;5074540;28;20119;-82
2022/03/29 02:37:01;;;;;;;42.93;23.57;;;;;;;6.54;68.12;101010.00;5085577;28;20407;-83
2022/03/29 02:39:28;;;;;;;44.80;23.87;;;;;;;6.63;67.98;101008.41;5064234;28;20055;-83
2022/03/29 02:41:54;;;;;;;39.63;23.45;;;;;;;6.69;67.79;101007.88;5049043;28;20051;-82
2022/03/29 02:44:19;;;;;;;42.70;21.93;;;;;;;6.66;68.08;101010.81;5085424;28;20031;-81
2022/03/29 02:46:46;;;;;;;37.20;20.80;;;;;;;6.73;68.13;101004.00;5068889;28;20534;-84
2022/03/29 02:49:12;;;;;;;40.17;21.35;;;;;;;6.74;68.03;100999.47;5048134;28;20028;-84
2022/03/29 02:51:37;;;;;;;42.77;19.77;;;;;;;6.75;67.92;100980.66;5088165;28;20845;-83
2022/03/29 02:54:03;;;;;;;34.70;19.20;;;;;;;6.84;67.83;100995.09;5068933;28;20071;-82
2022/03/29 02:56:29;;;;;;;35.13;18.73;;;;;;;6.76;67.50;100995.69;5089197;28;20040;-85
2022/03/29 02:58:55;;;;;;;46.50;19.45;;;;;;;6.69;67.58;100997.19;5089576;28;20032;-83
2022/03/29 03:01:21;;;;;;;34.63;18.42;;;;;;;6.83;66.92;100993.38;5065613;28;20043;-83
2022/03/29 03:03:46;;;;;;;40.10;18.77;;;;;;;6.64;67.32;100987.88;5056107;28;20093;-84
2022/03/29 03:06:12;;;;;;;37.00;17.87;;;;;;;6.53;67.59;100997.63;5070923;28;20024;-84
2022/03/29 03:08:37;;;;;;;49.92;18.23;;;;;;;6.67;66.86;101001.84;5053907;28;20064;-84
2022/03/29 03:11:03;;;;;;;46.37;19.37;;;;;;;6.57;66.69;100992.88;5087322;28;20036;-84
2022/03/29 03:13:29;;;;;;;41.95;18.35;;;;;;;6.54;66.82;101002.00;5067646;28;20078;-83
2022/03/29 03:15:54;;;;;;;42.20;18.33;;;;;;;6.75;65.98;100996.69;5071942;28;20077;-83
2022/03/29 03:18:23;;;;;;;42.97;22.07;;;;;;;6.64;66.14;100994.06;5089029;28;20297;-82
2022/03/29 03:20:51;;;;;;;47.13;22.67;;;;;;;6.58;66.03;100975.88;5055259;28;20418;-83
2022/03/29 03:23:16;;;;;;;50.08;23.30;;;;;;;6.69;65.58;100985.66;5053175;28;20560;-83
2022/03/29 03:25:55;;;;;;;52.03;23.40;;;;;;;6.64;65.63;100985.22;5050454;28;20135;-82
2022/03/29 03:28:20;;;;;;;53.63;23.50;;;;;;;6.46;65.93;100968.88;5071034;28;20090;-82
2022/03/29 03:30:46;;;;;;;58.67;24.77;;;;;;;6.43;65.85;100951.28;5089488;28;20036;-82
2022/03/29 03:33:12;;;;;;;57.37;23.40;;;;;;;6.63;65.24;100980.84;5055517;28;20032;-82
2022/03/29 03:35:40;;;;;;;44.40;22.73;;;;;;;6.43;65.60;100977.97;5049284;28;20270;-83
2022/03/29 03:38:09;;;;;;;52.35;21.88;;;;;;;6.40;65.39;100986.25;5068206;28;20042;-81
2022/03/29 03:40:36;;;;;;;47.42;20.58;;;;;;;6.31;65.54;100958.47;5082256;28;20067;-83
2022/03/29 03:43:05;;;;;;;40.88;19.83;;;;;;;6.23;65.99;100970.78;5105856;28;20125;-83
2022/03/29 03:45:30;;;;;;;43.72;19.35;;;;;;;6.19;66.06;100972.84;5103894;27;20039;-82
2022/03/29 03:47:58;;;;;;;48.85;19.55;;;;;;;6.24;66.28;100984.00;5082416;28;20032;-84
2022/03/29 03:50:24;;;;;;;41.25;18.75;;;;;;;6.28;66.21;100998.78;5099339;28;20043;-84
2022/03/29 03:52:51;;;;;;;48.90;18.85;;;;;;;6.31;65.99;100979.00;5108740;28;20241;-83
2022/03/29 03:55:18;;;;;;;39.05;18.30;;;;;;;6.38;65.65;100966.00;5102598;28;20028;-84
2022/03/29 03:57:44;;;;;;;40.53;18.17;;;;;;;6.28;66.12;100965.91;5082093;27;20035;-85
2022/03/29 04:00:11;;;;;;;41.63;18.67;;;;;;;6.33;65.99;100974.38;5092706;28;20092;-83
2022/03/29 04:02:39;;;;;;;43.88;18.15;;;;;;;6.37;65.86;100967.81;5094235;28;20056;-82
2022/03/29 04:05:08;;;;;;;42.35;18.58;;;;;;;6.26;66.04;100973.19;5075930;28;20044;-82
2022/03/29 04:07:34;;;;;;;42.22;17.70;;;;;;;6.36;66.02;100974.13;5111453;28;20419;-83
2022/03/29 04:10:09;;;;;;;42.92;18.85;;;;;;;6.36;66.05;100971.44;5084115;27;20368;-84
2022/03/29 04:12:36;;;;;;;43.42;18.98;;;;;;;6.30;66.33;100977.31;5075481;27;20036;-82
2022/03/29 04:15:02;;;;;;;;;;;;;;;6.50;65.88;100981.00;5110463;28;20052;-83
2022/03/29 04:17:27;;;;;;;40.97;18.30;;;;;;;6.48;65.95;100978.44;5101359;28;20284;-83
2022/03/29 04:19:54;;;;;;;40.80;18.40;;;;;;;6.59;65.75;100979.41;5097158;27;20043;-84
2022/03/29 04:22:21;;;;;;;39.42;19.17;;;;;;;6.58;66.09;100973.22;5063065;28;20034;-82
2022/03/29 04:24:47;;;;;;;46.22;18.42;;;;;;;6.71;65.25;100973.88;5106207;28;20097;-83
2022/03/29 04:27:13;;;;;;;47.72;19.10;;;;;;;6.72;65.16;100962.22;5055905;28;20037;-84
2022/03/29 04:29:40;;;;;;;40.00;19.50;;;;;;;6.86;65.17;100979.78;5073261;28;20121;-83
2022/03/29 04:32:06;;;;;;;54.83;18.80;;;;;;;6.89;64.97;100967.97;5111724;27;20369;-86
2022/03/29 04:34:34;;;;;;;48.10;20.92;;;;;;;6.90;64.73;100958.97;5077598;28;20047;-85
2022/03/29 04:37:00;;;;;;;47.50;20.73;;;;;;;6.83;65.47;100973.81;5092362;28;20039;-85
2022/03/29 04:39:30;;;;;;;57.17;21.70;;;;;;;6.94;65.16;100971.94;5089594;28;20174;-84
2022/03/29 04:41:57;;;;;;;46.42;20.38;;;;;;;7.08;64.43;100959.22;5077864;28;20511;-85
2022/03/29 04:44:24;;;;;;;59.67;21.23;;;;;;;7.25;64.29;100973.81;5090748;28;20067;-85
2022/03/29 04:46:51;;;;;;;49.40;21.67;;;;;;;7.32;63.93;100959.78;5071637;28;20109;-86
2022/03/29 04:49:17;;;;;;;50.63;22.08;;;;;;;7.50;63.76;100959.19;5098454;28;20135;-85
2022/03/29 04:51:42;;;;;;;58.03;23.63;;;;;;;7.63;63.85;100953.59;5097484;28;20055;-85
2022/03/29 04:54:07;;;;;;;54.67;24.20;;;;;;;7.67;63.81;100953.19;5082496;28;20101;-86
2022/03/29 04:56:33;;;;;;;55.35;23.90;;;;;;;7.83;63.60;100950.84;5092475;28;20040;-85
2022/03/29 04:58:59;;;;;;;51.50;23.60;;;;;;;8.07;62.95;100946.97;5094253;28;20027;-86
2022/03/29 05:01:27;;;;;;;71.07;27.40;;;;;;;8.34;62.02;100950.84;5062251;28;20448;-87
2022/03/29 05:03:54;;;;;;;64.43;27.35;;;;;;;8.52;61.59;100941.16;5102114;28;20122;-84
2022/03/29 05:06:20;;;;;;;57.10;25.02;;;;;;;8.67;61.19;100941.56;5106025;28;20035;-85
2022/03/29 05:08:46;;;;;;;59.88;27.05;;;;;;;8.76;60.69;100921.97;5089720;28;20043;-86
2022/03/29 05:11:13;;;;;;;57.65;27.20;;;;;;;8.96;60.33;100928.13;5086777;28;20492;-86
2022/03/29 05:13:40;;;;;;;71.35;27.42;;;;;;;9.06;60.12;100941.50;5056388;28;20119;-84
2022/03/29 05:16:07;;;;;;;72.93;27.88;;;;;;;9.17;59.90;100935.97;5092864;28;20048;-85
2022/03/29 05:18:32;;;;;;;57.15;27.38;;;;;;;9.42;59.01;100939.88;5094162;28;20069;-85
2022/03/29 05:20:58;;;;;;;74.00;29.93;;;;;;;9.58;58.39;100933.88;5093850;28;20031;-85
2022/03/29 05:23:26;;;;;;;70.63;28.73;;;;;;;9.68;57.45;100931.16;5095734;28;20309;-86
2022/03/29 05:25:51;;;;;;;65.80;28.95;;;;;;;9.70;57.36;100924.63;5111598;28;20062;-85
2022/03/29 05:28:17;;;;;;;71.28;28.13;;;;;;;10.21;56.36;100929.56;5100059;28;20048;-87
2022/03/29 05:30:45;;;;;;;70.43;27.57;;;;;;;10.48;55.49;100920.63;5100239;28;20050;-83
2022/03/29 05:33:15;;;;;;;69.15;26.70;;;;;;;10.90;54.16;100930.72;5089984;28;20326;-86
2022/03/29 05:35:41;;;;;;;68.97;26.25;;;;;;;11.22;53.27;100918.53;5074804;28;20027;-84
2022/03/29 05:38:08;;;;;;;72.03;27.25;;;;;;;11.66;52.09;100915.69;5075696;28;20119;-82
2022/03/29 05:40:34;;;;;;;64.88;25.60;;;;;;;12.16;50.90;100910.34;5085832;28;20048;-82
2022/03/29 05:43:00;;;;;;;84.30;27.52;;;;;;;12.65;49.91;100909.56;5062821;28;20031;-85
2022/03/29 05:45:29;;;;;;;73.60;27.67;;;;;;;13.73;47.15;100880.31;5075885;28;20043;-84
2022/03/29 05:50:41;;;;;;;71.10;27.20;;;;;;;14.78;44.89;100898.75;5109623;28;20830;-84
2022/03/29 05:53:08;;;;;;;72.78;28.63;;;;;;;15.30;43.96;100894.34;5094976;28;20039;-84
2022/03/29 05:55:35;;;;;;;68.10;27.95;;;;;;;15.75;42.63;100891.63;5094886;28;20055;-83
2022/03/29 05:58:00;;;;;;;71.53;25.00;;;;;;;15.86;41.87;100890.31;5093518;28;20077;-84
2022/03/29 06:00:27;;;;;;;56.95;23.67;;;;;;;15.83;41.19;100905.94;5094242;28;20484;-84
2022/03/29 06:02:55;;;;;;;64.70;25.17;;;;;;;16.22;40.80;100891.16;5064549;28;20518;-85
2022/03/29 06:05:21;;;;;;;56.10;23.33;;;;;;;16.74;39.15;100888.28;5061812;28;20033;-86
2022/03/29 06:07:47;;;;;;;50.60;20.30;;;;;;;17.39;37.29;100872.69;5112669;28;20118;-85
2022/03/29 06:10:12;;;;;;;;;;;;;;;18.66;34.82;100890.25;5095100;28;20077;-84
2022/03/29 06:12:38;;;;;;;34.20;16.83;;;;;;;19.86;32.49;100879.22;5093866;28;19930;-83
2022/03/29 06:15:03;;;;;;;;;;;;;;;20.29;31.52;100884.00;5112905;28;20039;-83
2022/03/29 06:17:29;;;;;;;;;;;;;;;20.62;30.72;100878.34;5093505;28;20356;-84
2022/03/29 06:19:55;;;;;;;37.22;15.05;;;;;;;21.97;28.78;100879.47;5090291;28;20395;-84
2022/03/29 06:22:20;;;;;;;31.80;15.02;;;;;;;22.62;26.96;100865.06;5093702;28;20044;-84
2022/03/29 06:24:46;;;;;;;32.60;14.20;;;;;;;23.03;25.89;100882.53;5076206;28;20039;-84
2022/03/29 06:27:11;;;;;;;34.78;14.43;;;;;;;22.84;26.28;100876.28;5111673;28;20117;-84
2022/03/29 06:29:37;;;;;;;41.40;14.63;;;;;;;23.48;25.79;100884.63;5112127;28;20031;-83
2022/03/29 06:32:03;;;;;;;38.00;14.65;;;;;;;24.45;24.46;100883.84;5094519;28;20495;-83
2022/03/29 06:34:29;;;;;;;40.75;15.43;;;;;;;24.83;23.32;100885.06;5094458;28;20040;-84
2022/03/29 06:36:55;;;;;;;35.15;17.90;;;;;;;24.61;24.04;100865.72;5096613;28;20120;-83
2022/03/29 06:39:21;;;;;;;35.58;16.17;;;;;;;24.71;23.18;100878.81;5077529;28;20078;-86
2022/03/29 06:41:46;;;;;;;30.27;15.07;;;;;;;24.77;23.49;100877.78;5112888;28;20495;-84
2022/03/29 06:44:15;;;;;;;34.28;17.95;;;;;;;24.98;22.98;100882.56;5113453;28;20476;-86
2022/03/29 06:46:40;;;;;;;41.65;16.90;;;;;;;25.04;23.20;100878.78;5097204;28;20032;-83
2022/03/29 06:49:06;;;;;;;46.47;18.85;;;;;;;24.21;23.60;100875.72;5112625;28;20035;-85
2022/03/29 06:51:35;;;;;;;37.15;19.63;;;;;;;23.78;24.09;100870.75;5111355;28;20077;-83
2022/03/29 06:54:02;;;;;;;41.80;19.02;;;;;;;23.37;24.97;100878.94;5127120;28;20007;-84
2022/03/29 06:56:28;;;;;;;50.30;18.77;;;;;;;23.27;25.10;100873.22;5127982;28;20053;-83
2022/03/29 06:58:54;;;;;;;42.55;17.88;;;;;;;23.14;25.25;100881.69;5092022;28;20511;-84
2022/03/29 07:01:19;;;;;;;41.67;18.92;;;;;;;23.65;24.50;100871.84;5109704;28;20027;-83
2022/03/29 07:03:45;;;;;;;35.75;19.40;;;;;;;24.36;23.85;100874.34;5108928;28;20414;-83
2022/03/29 07:06:10;;;;;;;41.60;22.50;;;;;;;25.32;22.21;100867.94;5110164;28;20038;-83
2022/03/29 07:11:15;;;;;;;46.45;21.33;;;;;;;25.52;21.88;100853.59;5110200;28;20062;-84
2022/03/29 07:11:24;;;;;;;49.03;23.60;;;;;;;25.20;22.90;100857.03;5110865;28;20478;-85
2022/03/29 07:13:50;;;;;;;37.40;19.48;;;;;;;26.89;20.20;100856.94;5113710;28;20487;-84
2022/03/29 07:16:15;;;;;;;38.35;19.02;;;;;;;26.96;21.09;100837.41;5114483;28;20122;-84
2022/03/29 07:18:41;;;;;;;41.78;18.85;;;;;;;27.93;19.54;100831.53;5116381;28;20533;-83
2022/03/29 07:21:07;;;;;;;39.03;20.35;;;;;;;29.11;18.87;100829.66;5136300;28;20027;-83
2022/03/29 07:23:32;;;;;;;50.75;19.92;;;;;;;29.29;18.91;100822.69;5122929;28;20030;-84
2022/03/29 07:25:58;;;;;;;34.25;15.23;;;;;;;30.08;17.05;100825.63;5121755;28;20031;-83
2022/03/29 07:28:23;;;;;;;25.73;14.80;;;;;;;29.16;17.24;100821.34;5116927;28;20024;-83
2022/03/29 07:30:49;;;;;;;25.85;14.45;;;;;;;29.02;17.61;100825.78;5116452;27;20411;-83
2022/03/29 07:33:17;;;;;;;25.02;13.90;;;;;;;29.77;16.74;100822.22;5117762;28;20082;-82
2022/03/29 07:35:42;;;;;;;22.65;12.30;;;;;;;28.23;18.06;100818.88;5098890;28;20031;-84
2022/03/29 07:38:09;;;;;;;24.70;12.23;;;;;;;27.32;18.97;100818.31;5112446;28;20032;-84
2022/03/29 07:40:34;;;;;;;20.67;12.00;;;;;;;27.52;18.90;100812.88;5113980;28;20039;-83
2022/03/29 07:43:00;;;;;;;18.75;11.38;;;;;;;27.89;18.62;100803.66;5113569;28;20165;-84
2022/03/29 07:45:26;;;;;;;24.23;12.18;;;;;;;26.85;19.38;100797.88;5108430;28;20043;-83
2022/03/29 07:47:56;;;;;;;16.80;10.82;;;;;;;27.93;18.63;100787.34;5091424;28;20034;-85
2022/03/29 07:50:24;;;;;;;25.92;11.93;;;;;;;28.21;18.34;100772.16;5086955;28;20475;-82
2022/03/29 07:52:52;;;;;;;21.15;11.63;;;;;;;27.46;19.30;100778.06;5093891;28;20039;-83
2022/03/29 07:55:20;;;;;;;27.27;12.27;;;;;;;27.68;18.88;100779.81;5085352;28;20031;-84
2022/03/29 07:57:47;;;;;;;21.55;11.20;;;;;;;27.74;18.99;100778.72;5085587;28;20093;-84
2022/03/29 08:00:35;;;;;;;33.25;13.20;;;;;;;28.04;18.54;100768.84;5089502;28;20079;-87
2022/03/29 08:03:18;;;;;;;29.88;12.30;;;;;;;28.39;18.23;100785.44;5085861;28;20062;-86
2022/03/29 08:05:46;;;;;;;20.13;11.57;;;;;;;29.25;17.54;100764.28;5092222;28;20036;-86
2022/03/29 08:08:14;;;;;;;50.13;14.20;;;;;;;27.56;18.67;100764.31;5095221;28;20042;-84
2022/03/29 08:10:40;;;;;;;31.83;11.50;;;;;;;27.85;18.46;100758.31;5112719;27;20092;-82
2022/03/29 08:13:10;;;;;;;16.08;10.20;;;;;;;26.90;19.50;100759.31;5082947;28;20035;-82
2022/03/29 08:15:37;;;;;;;33.38;11.30;;;;;;;27.42;19.05;100759.56;5107224;28;20039;-85
2022/03/29 08:18:04;;;;;;;54.83;12.73;;;;;;;26.68;19.81;100762.22;5098540;28;20028;-85
2022/03/29 08:20:30;;;;;;;17.33;10.05;;;;;;;25.87;20.61;100768.72;5076490;28;20054;-84
2022/03/29 08:23:01;;;;;;;27.92;11.05;;;;;;;24.61;22.31;100762.13;5095602;28;20052;-84
2022/03/29 08:25:33;;;;;;;20.58;11.52;;;;;;;24.63;22.49;100772.84;5099363;28;20039;-92
2022/03/29 08:27:59;;;;;;;22.55;12.50;;;;;;;24.66;22.58;100757.78;5110128;28;20038;-92
2022/03/29 08:30:25;;;;;;;32.08;13.27;;;;;;;24.55;22.92;100757.63;5129512;28;20058;-88
2022/03/29 08:32:53;;;;;;;23.92;12.85;;;;;;;24.64;22.55;100738.78;5102314;28;20047;-87
2022/03/29 08:35:19;;;;;;;23.67;12.55;;;;;;;24.76;22.63;100724.94;5107599;28;20401;-86
2022/03/29 08:37:46;;;;;;;24.13;13.18;;;;;;;25.10;22.61;100730.31;5104170;28;20055;-88
2022/03/29 08:40:14;;;;;;;30.67;13.23;;;;;;;23.46;25.70;100716.69;5108508;28;20040;-88
2022/03/29 08:42:42;;;;;;;24.25;12.02;;;;;;;23.01;27.53;100725.66;5100226;28;20142;-93
2022/03/29 08:45:09;;;;;;;39.55;13.40;;;;;;;23.30;27.16;100708.16;5096509;28;20129;-85
2022/03/29 08:47:40;;;;;;;23.50;12.60;;;;;;;22.83;27.88;100707.41;5106955;28;20381;-91
2022/03/29 08:50:14;;;;;;;33.40;14.10;;;;;;;21.09;31.50;100720.22;5107610;28;20096;-91
2022/03/29 08:52:44;;;;;;;33.03;13.10;;;;;;;19.97;33.59;100732.00;5097235;28;20039;-89
2022/03/29 08:55:27;;;;;;;;;;;;;;;;;;;;;
2022/03/29 08:57:55;;;;;;;34.58;14.10;;;;;;;21.37;31.08;100705.97;5089203;28;20116;-87
2022/03/29 09:00:24;;;;;;;34.03;13.65;;;;;;;20.71;32.10;100710.34;5090062;28;20057;-86
2022/03/29 09:02:49;;;;;;;35.70;17.13;;;;;;;20.63;32.71;100711.50;5070947;28;20122;-88
2022/03/29 09:05:26;;;;;;;29.20;16.08;;;;;;;20.07;33.25;100706.13;5071572;28;20024;-86
2022/03/29 09:08:03;;;;;;;34.50;15.27;;;;;;;19.63;33.94;100699.69;5099136;28;20030;-86
2022/03/29 09:10:49;;;;;;;28.40;10.77;;;;;;;19.74;34.16;100708.03;5092191;28;20491;-86
2022/03/29 09:13:23;;;;;;;26.13;10.13;;;;;;;18.53;36.51;100733.19;5111848;28;20508;-82
2022/03/29 09:15:51;;;;;;;25.20;10.43;;;;;;;18.38;36.24;100717.09;5110740;28;20063;-87
2022/03/29 09:18:17;;;;;;;27.98;12.13;;;;;;;18.95;35.12;100725.59;5082693;28;20064;-85
2022/03/29 09:20:42;;;;;;;;;;;;;;;19.34;34.45;100723.78;5092808;28;20086;-81
2022/03/29 09:23:14;;;;;;;26.10;11.27;;;;;;;19.09;34.64;100721.75;5109355;28;19916;-85
2022/03/29 09:25:47;;;;;;;24.98;9.70;;;;;;;19.34;34.05;100719.16;5111493;28;20114;-89
2022/03/29 09:28:16;;;;;;;19.88;9.77;;;;;;;19.07;34.36;100712.97;5112003;28;20122;-83
2022/03/29 09:30:45;;;;;;;28.42;10.75;;;;;;;19.45;34.53;100714.88;5092885;28;20044;-87
2022/03/29 09:33:17;;;;;;;26.70;10.73;;;;;;;19.07;34.64;100699.34;5090461;28;20032;-86
2022/03/29 09:35:59;;;;;;;32.33;11.52;;;;;;;19.39;34.18;100707.59;5098881;28;20352;-88
2022/03/29 09:38:33;;;;;;;27.38;11.82;;;;;;;19.24;34.25;100701.56;5110267;28;20019;-87
2022/03/29 09:41:01;;;;;;;25.40;11.75;;;;;;;18.91;34.91;100692.47;5098672;28;20059;-86
2022/03/29 09:43:34;;;;;;;24.33;10.93;;;;;;;18.81;35.26;100699.44;5082037;28;20034;-86
2022/03/29 09:46:03;;;;;;;20.60;11.45;;;;;;;19.34;34.44;100685.59;5093091;28;20070;-86
2022/03/29 09:48:33;;;;;;;30.95;12.38;;;;;;;19.92;33.50;100693.63;5101123;28;20028;-85
2022/03/29 09:51:12;;;;;;;21.85;11.90;;;;;;;19.92;33.46;100688.16;5099017;28;20047;-86
2022/03/29 09:54:06;;;;;;;19.17;11.95;;;;;;;20.28;33.10;100685.78;5101687;28;20495;-86
2022/03/29 09:56:34;;;;;;;22.73;11.73;;;;;;;20.33;32.45;100678.56;5090176;28;20466;-86
2022/03/29 09:59:16;;;;;;;25.83;12.60;;;;;;;19.92;32.44;100677.25;5105746;28;20073;-87
2022/03/29 10:01:53;;;;;;;22.33;11.20;;;;;;;19.47;32.98;100679.22;5092820;28;20044;-88
2022/03/29 10:04:20;;;;;;;25.33;11.93;;;;;;;19.70;32.57;100673.25;5080656;28;20036;-86
2022/03/29 10:06:47;;;;;;;23.75;12.68;;;;;;;19.34;32.68;100642.00;5088660;28;20050;-86
2022/03/29 10:09:29;;;;;;;23.33;11.57;;;;;;;19.33;32.81;100670.28;5089546;28;20028;-86
2022/03/29 10:12:02;;;;;;;23.70;12.48;;;;;;;18.80;33.22;100640.56;5090663;28;20032;-85
2022/03/29 10:14:34;;;;;;;17.40;11.50;;;;;;;19.42;32.09;100665.41;5109540;28;20036;-85
2022/03/29 10:17:04;;;;;;;22.42;10.98;;;;;;;19.32;32.00;100639.47;5094488;28;20092;-83
2022/03/29 10:19:32;;;;;;;17.95;10.75;;;;;;;19.43;31.80;100642.53;5087423;28;20036;-83
2022/03/29 10:21:58;;;;;;;24.60;11.73;;;;;;;19.68;31.13;100658.94;5106741;28;20090;-81
2022/03/29 10:24:24;;;;;;;27.02;10.88;;;;;;;19.59;31.63;100661.09;5107492;28;20028;-83
2022/03/29 10:26:51;;;;;;;;;;;;;;;19.36;31.81;100650.75;5084648;28;20135;-83
2022/03/29 10:29:17;;;;;;;20.88;10.93;;;;;;;19.24;31.67;100641.63;5106389;28;20689;-83
2022/03/29 10:31:48;;;;;;;;;;;;;;;19.52;31.43;100646.69;5094921;28;20027;-83
2022/03/29 10:34:22;;;;;;;26.48;13.10;;;;;;;19.49;31.68;100628.88;5106364;28;19912;-85
2022/03/29 10:37:17;;;;;;;20.83;11.15;;;;;;;19.39;31.65;100634.00;5125179;28;20119;-83
2022/03/29 10:40:03;;;;;;;20.65;11.45;;;;;;;19.28;31.81;100632.78;5120420;28;20043;-82
2022/03/29 10:42:38;;;;;;;18.20;11.07;;;;;;;19.88;30.99;100618.75;5107988;28;20158;-82
2022/03/29 10:45:14;;;;;;;22.50;11.60;;;;;;;20.48;30.15;100603.66;5106908;28;20196;-82
2022/03/29 10:47:40;;;;;;;26.17;11.25;;;;;;;20.95;29.22;100609.41;5107169;28;20058;-83
2022/03/29 10:50:08;;;;;;;16.42;10.63;;;;;;;21.54;28.47;100607.75;5110736;28;20123;-85
2022/03/29 10:52:37;;;;;;;20.45;11.20;;;;;;;21.93;27.25;100599.91;5084556;28;20449;-86
2022/03/29 10:55:22;;;;;;;26.33;11.52;;;;;;;22.64;26.63;100594.38;5102120;28;20080;-89
2022/03/29 10:58:03;;;;;;;27.35;12.60;;;;;;;23.32;25.70;100596.28;5104436;28;20027;-92
2022/03/29 11:00:31;;;;;;;23.52;11.40;;;;;;;23.56;25.39;100590.66;5127816;28;20031;-87
2022/03/29 11:03:22;;;;;;;22.38;12.65;;;;;;;24.29;24.60;100593.44;5092761;28;20073;-87
2022/03/29 11:06:12;;;;;;;28.17;11.45;;;;;;;25.79;22.98;100579.13;5126557;28;20023;-89
2022/03/29 11:08:42;;;;;;;23.48;11.82;;;;;;;27.12;21.43;100570.69;5126112;28;20028;-87
2022/03/29 11:11:44;;;;;;;24.20;11.77;;;;;;;27.65;20.24;100565.78;5092778;28;20096;-83
2022/03/29 11:14:29;;;;;;;20.20;11.52;;;;;;;28.75;19.10;100561.38;5120157;28;20027;-84
2022/03/29 11:17:09;;;;;;;24.38;13.07;;;;;;;29.98;17.93;100549.38;5100919;28;20032;-82
2022/03/29 11:19:48;;;;;;;23.55;11.43;;;;;;;30.85;16.73;100544.72;5099100;28;20036;-84
2022/03/29 11:22:34;;;;;;;18.27;11.73;;;;;;;30.28;17.05;100541.84;5106478;28;20080;-84
2022/03/29 11:25:01;;;;;;;18.25;10.80;;;;;;;29.82;17.68;100523.75;5104239;28;20036;-84
2022/03/29 11:27:32;;;;;;;23.48;11.35;;;;;;;28.35;18.95;100537.47;5111558;28;20477;-80
2022/03/29 11:30:17;;;;;;;21.38;12.38;;;;;;;28.35;19.05;100527.25;5121230;28;20027;-82